createdAt,value
2018-12-19T00:00:37.450Z,90.00
2018-12-19T00:03:05.328Z,90.10
2018-12-19T00:05:33.238Z,90.10
2018-12-19T00:08:01.467Z,90.30
2018-12-19T00:10:29.308Z,90.30
2018-12-19T00:12:57.331Z,90.30
2018-12-19T00:15:25.212Z,90.10
2018-12-19T00:17:53.158Z,90.30
2018-12-19T00:20:21.082Z,90.30
2018-12-19T00:22:48.962Z,90.30
2018-12-19T00:25:16.931Z,90.40
2018-12-19T00:27:44.977Z,90.40
2018-12-19T00:30:12.961Z,90.50
2018-12-19T00:32:40.851Z,90.60
2018-12-19T00:35:08.700Z,90.40
2018-12-19T00:37:36.591Z,90.30
2018-12-19T00:40:04.636Z,90.50
2018-12-19T00:42:32.557Z,90.50
2018-12-19T00:45:00.956Z,90.20
2018-12-19T00:47:28.868Z,90.30
2018-12-19T00:49:56.750Z,90.20
2018-12-19T00:52:24.563Z,90.00
2018-12-19T00:54:52.504Z,90.00
2018-12-19T00:57:20.252Z,90.00
2018-12-19T00:59:48.240Z,90.20
2018-12-19T01:02:16.084Z,90.10
2018-12-19T01:04:48.052Z,90.20
2018-12-19T01:07:13.716Z,90.20
2018-12-19T01:09:42.146Z,90.10
2018-12-19T01:12:10.071Z,90.20
2018-12-19T01:14:37.957Z,90.20
2018-12-19T01:17:05.791Z,90.20
2018-12-19T01:19:33.741Z,90.10
2018-12-19T01:22:01.943Z,89.70
2018-12-19T01:24:29.831Z,89.20
2018-12-19T01:26:57.651Z,89.10
2018-12-19T01:29:25.544Z,88.90
2018-12-19T01:31:53.456Z,89.20
2018-12-19T01:34:21.364Z,88.40
2018-12-19T01:36:49.235Z,88.60
2018-12-19T01:39:22.450Z,88.30
2018-12-19T01:41:47.012Z,87.60
2018-12-19T01:44:14.900Z,87.70
2018-12-19T01:46:42.795Z,87.10
2018-12-19T01:49:10.620Z,86.60
2018-12-19T01:51:38.629Z,87.20
2018-12-19T01:54:06.815Z,87.70
2018-12-19T01:56:34.823Z,87.80
2018-12-19T01:59:02.646Z,87.80
2018-12-19T02:01:30.643Z,86.80
2018-12-19T02:03:58.601Z,87.00
2018-12-19T02:06:26.520Z,86.90
2018-12-19T02:08:54.430Z,86.30
2018-12-19T02:11:22.309Z,87.10
2018-12-19T02:13:50.169Z,86.20
2018-12-19T02:16:18.077Z,86.40
2018-12-19T02:18:45.968Z,86.00
2018-12-19T02:21:13.792Z,85.90
2018-12-19T02:23:41.799Z,86.50
2018-12-19T02:26:09.753Z,86.20
2018-12-19T02:28:37.635Z,86.60
2018-12-19T02:31:05.443Z,87.30
2018-12-19T02:33:33.271Z,87.30
2018-12-19T02:36:01.325Z,88.20
2018-12-19T02:38:29.323Z,87.50
2018-12-19T02:40:57.125Z,87.80
2018-12-19T02:43:25.119Z,87.80
2018-12-19T02:45:53.000Z,87.10
2018-12-19T02:48:20.901Z,87.60
2018-12-19T02:50:48.758Z,88.40
2018-12-19T02:53:16.804Z,89.00
2018-12-19T02:55:44.629Z,89.20
2018-12-19T02:58:12.699Z,89.00
2018-12-19T03:00:40.586Z,88.40
2018-12-19T03:03:08.565Z,88.90
2018-12-19T03:05:36.405Z,87.90
2018-12-19T03:08:04.312Z,88.00
2018-12-19T03:10:32.133Z,87.10
2018-12-19T03:12:59.955Z,87.40
2018-12-19T03:15:28.390Z,88.00
2018-12-19T03:17:56.231Z,87.60
2018-12-19T03:20:24.151Z,87.60
2018-12-19T03:22:51.972Z,87.50
2018-12-19T03:25:19.864Z,87.80
2018-12-19T03:27:47.679Z,87.70
2018-12-19T03:30:15.597Z,88.30
2018-12-19T03:32:43.454Z,88.70
2018-12-19T03:35:11.373Z,89.10
2018-12-19T03:37:39.209Z,89.20
2018-12-19T03:40:07.252Z,89.20
2018-12-19T03:42:35.233Z,89.30
2018-12-19T03:45:03.522Z,89.20
2018-12-19T03:47:32.455Z,89.70
2018-12-19T03:50:00.320Z,89.50
2018-12-19T03:52:28.309Z,89.70
2018-12-19T03:54:56.171Z,89.80
2018-12-19T03:57:24.295Z,89.70
2018-12-19T03:59:52.309Z,89.50
2018-12-19T04:02:20.139Z,89.50
2018-12-19T04:04:47.955Z,89.50
2018-12-19T04:07:15.883Z,89.50
2018-12-19T04:09:43.711Z,89.00
2018-12-19T04:12:11.592Z,89.30
2018-12-19T04:14:39.410Z,89.20
2018-12-19T04:17:07.418Z,88.90
2018-12-19T04:19:35.246Z,88.50
2018-12-19T04:22:03.344Z,88.90
2018-12-19T04:24:31.162Z,88.60
2018-12-19T04:26:59.087Z,88.40
2018-12-19T04:29:26.927Z,88.00
2018-12-19T04:31:54.829Z,88.40
2018-12-19T04:34:22.668Z,88.40
2018-12-19T04:36:50.646Z,88.40
2018-12-19T04:39:18.466Z,87.70
2018-12-19T04:41:46.365Z,87.30
2018-12-19T04:44:14.335Z,87.10
2018-12-19T04:46:42.133Z,88.00
2018-12-19T04:49:10.020Z,87.60
2018-12-19T04:51:37.945Z,87.20
2018-12-19T04:54:05.858Z,86.80
2018-12-19T04:56:33.673Z,86.80
2018-12-19T04:59:01.735Z,86.80
2018-12-19T05:01:29.611Z,87.20
2018-12-19T05:03:57.605Z,86.50
2018-12-19T05:06:25.428Z,86.80
2018-12-19T05:08:53.323Z,87.00
2018-12-19T05:11:21.128Z,86.90
2018-12-19T05:13:49.088Z,86.80
2018-12-19T05:16:16.913Z,87.00
2018-12-19T05:18:44.813Z,87.20
2018-12-19T05:21:12.668Z,87.20
2018-12-19T05:23:40.563Z,87.10
2018-12-19T05:26:08.530Z,87.20
2018-12-19T05:28:36.350Z,86.90
2018-12-19T05:31:04.441Z,87.40
2018-12-19T05:33:32.232Z,87.30
2018-12-19T05:36:00.065Z,87.20
2018-12-19T05:38:28.195Z,87.20
2018-12-19T05:40:56.092Z,87.10
2018-12-19T05:43:24.000Z,86.90
2018-12-19T05:45:51.840Z,86.90
2018-12-19T05:48:19.578Z,86.60
2018-12-19T05:50:47.488Z,86.40
2018-12-19T05:53:15.309Z,85.60
2018-12-19T05:55:43.217Z,85.50
2018-12-19T05:58:10.928Z,86.00
2018-12-19T06:00:38.820Z,86.10
2018-12-19T06:03:06.659Z,86.10
2018-12-19T06:05:34.542Z,86.00
2018-12-19T06:08:02.553Z,85.80
2018-12-19T06:10:30.439Z,85.00
2018-12-19T06:12:58.252Z,85.10
2018-12-19T06:15:26.093Z,85.60
2018-12-19T06:17:54.116Z,85.30
2018-12-19T06:20:21.912Z,84.10
2018-12-19T06:22:49.795Z,84.70
2018-12-19T06:25:17.634Z,84.30
2018-12-19T06:27:45.536Z,84.60
2018-12-19T06:30:14.292Z,84.60
2018-12-19T06:32:43.211Z,84.00
2018-12-19T06:35:11.062Z,84.40
2018-12-19T06:37:38.862Z,84.80
2018-12-19T06:40:07.451Z,85.80
2018-12-19T06:42:35.680Z,87.10
2018-12-19T06:45:04.967Z,88.00
2018-12-19T06:47:33.488Z,89.40
2018-12-19T06:50:01.439Z,90.00
2018-12-19T06:52:30.120Z,90.50
2018-12-19T06:54:57.915Z,91.00
2018-12-19T06:57:25.820Z,91.70
2018-12-19T06:59:53.632Z,91.80
2018-12-19T07:02:21.579Z,91.70
2018-12-19T07:04:49.534Z,91.70
2018-12-19T07:07:17.349Z,91.80
2018-12-19T07:09:45.240Z,92.00
2018-12-19T07:12:13.190Z,92.40
2018-12-19T07:14:41.257Z,92.60
2018-12-19T07:17:09.083Z,92.50
2018-12-19T07:19:36.896Z,92.70
2018-12-19T07:22:04.798Z,92.80
2018-12-19T07:24:32.693Z,92.80
2018-12-19T07:27:01.103Z,93.00
2018-12-19T07:29:28.991Z,92.90
2018-12-19T07:31:56.818Z,93.10
2018-12-19T07:34:24.731Z,93.30
2018-12-19T07:36:52.478Z,93.40
2018-12-19T07:39:20.512Z,93.50
2018-12-19T07:41:48.347Z,93.40
2018-12-19T07:44:16.328Z,93.40
2018-12-19T07:46:52.136Z,93.40
2018-12-19T07:51:57.371Z,93.50
2018-12-19T07:54:25.288Z,93.80
2018-12-19T07:56:53.138Z,94.10
2018-12-19T07:59:20.956Z,94.20
2018-12-19T08:01:48.883Z,94.00
2018-12-19T08:04:17.148Z,94.40
2018-12-19T08:06:45.155Z,94.00
2018-12-19T08:09:12.992Z,94.00
2018-12-19T08:11:40.997Z,93.90
2018-12-19T08:14:08.829Z,94.40
2018-12-19T08:16:36.881Z,94.40
2018-12-19T08:19:04.724Z,94.60
2018-12-19T08:21:32.620Z,94.60
2018-12-19T08:24:00.372Z,94.60
2018-12-19T08:26:28.279Z,94.80
2018-12-19T08:28:56.250Z,95.00
2018-12-19T08:31:24.776Z,95.00
2018-12-19T08:33:52.739Z,95.00
2018-12-19T08:36:20.653Z,95.00
2018-12-19T08:38:48.587Z,95.00
2018-12-19T08:41:16.439Z,95.30
2018-12-19T08:43:44.364Z,94.80
2018-12-19T08:46:14.713Z,94.80
2018-12-19T08:48:42.167Z,94.80
2018-12-19T08:51:10.043Z,94.60
2018-12-19T08:53:38.061Z,94.80
2018-12-19T08:56:06.136Z,94.80
2018-12-19T08:58:34.043Z,94.90
2018-12-19T09:01:02.161Z,95.00
2018-12-19T09:03:30.172Z,95.00
2018-12-19T09:05:58.013Z,94.90
2018-12-19T09:08:25.931Z,95.30
2018-12-19T09:10:53.840Z,95.40
2018-12-19T09:13:21.872Z,95.40
2018-12-19T09:15:49.787Z,95.30
2018-12-19T09:18:19.056Z,95.40
2018-12-19T09:20:47.155Z,95.70
2018-12-19T09:23:15.568Z,95.50
2018-12-19T09:25:43.546Z,95.80
2018-12-19T09:28:11.511Z,95.90
2018-12-19T09:30:39.364Z,95.80
2018-12-19T09:33:07.232Z,95.80
2018-12-19T09:35:35.173Z,96.10
2018-12-19T09:38:02.991Z,96.00
2018-12-19T09:40:30.883Z,95.90
2018-12-19T09:42:58.899Z,96.00
2018-12-19T09:45:26.894Z,96.10
2018-12-19T09:47:54.756Z,96.10
2018-12-19T09:50:22.804Z,96.10
2018-12-19T09:52:50.693Z,96.40
2018-12-19T09:55:18.596Z,96.40
2018-12-19T09:57:46.470Z,96.30
2018-12-19T10:00:20.151Z,96.30
2018-12-19T10:02:49.604Z,96.50
2018-12-19T10:05:17.531Z,96.40
2018-12-19T10:07:45.389Z,96.50
2018-12-19T10:10:13.292Z,96.60
2018-12-19T10:12:41.095Z,96.80
2018-12-19T10:15:09.123Z,96.60
2018-12-19T10:17:40.872Z,96.80
2018-12-19T10:20:07.075Z,96.80
2018-12-19T10:22:35.011Z,96.80
2018-12-19T10:25:08.892Z,96.70
2018-12-19T10:27:38.351Z,96.90
2018-12-19T10:30:08.770Z,97.30
2018-12-19T10:32:38.249Z,97.40
2018-12-19T10:35:09.341Z,97.70
2018-12-19T10:37:37.269Z,97.70
2018-12-19T10:40:08.537Z,97.80
2018-12-19T10:42:36.685Z,97.60
2018-12-19T10:45:07.070Z,97.40
2018-12-19T10:47:35.087Z,97.50
2018-12-19T10:50:03.518Z,97.40
2018-12-19T10:52:32.860Z,97.50
2018-12-19T10:55:00.737Z,97.70
2018-12-19T10:57:28.673Z,97.80
2018-12-19T10:59:56.653Z,97.70
2018-12-19T11:02:24.546Z,97.90
2018-12-19T11:04:52.389Z,97.80
2018-12-19T11:07:20.313Z,97.60
2018-12-19T11:09:48.246Z,97.60
2018-12-19T11:12:16.182Z,97.50
2018-12-19T11:14:44.154Z,97.50
2018-12-19T11:17:12.184Z,97.50
2018-12-19T11:19:40.024Z,97.50
2018-12-19T11:22:10.164Z,97.70
2018-12-19T11:24:38.502Z,97.70
2018-12-19T11:27:06.348Z,97.70
2018-12-19T11:29:34.312Z,97.80
2018-12-19T11:32:02.287Z,97.80
2018-12-19T11:34:30.262Z,97.80
2018-12-19T11:36:58.248Z,97.80
2018-12-19T11:39:26.156Z,97.80
2018-12-19T11:41:54.148Z,98.20
2018-12-19T11:44:22.120Z,98.00
2018-12-19T11:46:49.971Z,97.90
2018-12-19T11:49:18.025Z,97.90
2018-12-19T11:51:45.883Z,98.20
2018-12-19T11:54:13.808Z,98.20
2018-12-19T11:56:42.880Z,98.40
2018-12-19T11:59:10.794Z,98.10
2018-12-19T12:01:41.484Z,97.90
2018-12-19T12:04:17.212Z,97.90
2018-12-19T12:06:47.534Z,97.80
2018-12-19T12:09:20.331Z,97.60
2018-12-19T12:11:53.784Z,97.30
2018-12-19T12:14:23.389Z,97.60
2018-12-19T12:16:53.641Z,97.90
2018-12-19T12:19:22.820Z,97.80
2018-12-19T12:21:54.648Z,97.70
2018-12-19T12:24:24.232Z,97.90
2018-12-19T12:26:52.863Z,97.90
2018-12-19T12:29:21.840Z,98.10
2018-12-19T12:31:50.368Z,98.30
2018-12-19T12:34:21.891Z,98.50
2018-12-19T12:36:51.468Z,98.20
2018-12-19T12:39:20.697Z,98.00
2018-12-19T12:41:52.354Z,97.80
2018-12-19T12:44:20.287Z,98.10
2018-12-19T12:46:51.055Z,98.10
2018-12-19T12:49:19.664Z,98.00
2018-12-19T12:51:49.306Z,97.90
2018-12-19T12:54:21.052Z,97.90
2018-12-19T12:56:50.729Z,97.90
2018-12-19T12:59:18.650Z,98.10
2018-12-19T13:01:49.162Z,98.20
2018-12-19T13:04:20.133Z,98.30
2018-12-19T13:06:48.831Z,98.20
2018-12-19T13:09:21.095Z,98.40
2018-12-19T13:11:49.736Z,98.50
2018-12-19T13:14:19.821Z,98.40
2018-12-19T13:16:47.714Z,98.70
2018-12-19T13:19:15.673Z,98.60
2018-12-19T13:21:45.283Z,98.40
2018-12-19T13:24:13.505Z,98.30
2018-12-19T13:26:41.817Z,98.50
2018-12-19T13:29:11.879Z,98.60
2018-12-19T13:31:41.115Z,98.40
2018-12-19T13:34:09.793Z,98.60
2018-12-19T13:36:40.190Z,98.50
2018-12-19T13:39:09.736Z,98.70
2018-12-19T13:41:39.292Z,98.70
2018-12-19T13:44:09.239Z,98.60
2018-12-19T13:46:39.535Z,98.60
2018-12-19T13:49:10.386Z,98.60
2018-12-19T13:51:41.165Z,98.50
2018-12-19T13:54:13.059Z,98.70
2018-12-19T13:56:44.875Z,98.80
2018-12-19T13:59:14.871Z,98.90
2018-12-19T14:01:46.218Z,98.80
2018-12-19T14:04:14.295Z,99.10
2018-12-19T14:06:42.183Z,99.10
2018-12-19T14:09:10.155Z,99.30
2018-12-19T14:11:37.980Z,99.10
2018-12-19T14:14:05.956Z,99.00
2018-12-19T14:16:33.816Z,98.80
2018-12-19T14:19:02.024Z,98.90
2018-12-19T14:21:29.941Z,98.80
2018-12-19T14:23:57.819Z,98.60
2018-12-19T14:26:25.775Z,98.50
2018-12-19T14:28:53.728Z,98.90
2018-12-19T14:31:22.195Z,99.00
2018-12-19T14:33:50.086Z,99.00
2018-12-19T14:36:18.026Z,99.00
2018-12-19T14:38:45.960Z,98.60
2018-12-19T14:41:14.012Z,98.60
2018-12-19T14:43:42.039Z,98.70
2018-12-19T14:46:10.116Z,98.70
2018-12-19T14:48:38.067Z,98.60
2018-12-19T14:51:06.128Z,98.60
2018-12-19T14:53:34.082Z,98.10
2018-12-19T14:56:02.048Z,98.00
2018-12-19T14:58:30.130Z,97.70
2018-12-19T15:00:58.119Z,97.80
2018-12-19T15:03:26.038Z,97.60
2018-12-19T15:05:53.926Z,97.70
2018-12-19T15:08:21.990Z,97.50
2018-12-19T15:10:49.886Z,97.60
2018-12-19T15:13:18.016Z,97.70
2018-12-19T15:15:50.471Z,97.50
2018-12-19T15:18:20.063Z,97.60
2018-12-19T15:20:47.965Z,97.60
2018-12-19T15:23:15.990Z,97.70
2018-12-19T15:25:43.962Z,97.80
2018-12-19T15:28:11.989Z,97.90
2018-12-19T15:30:40.332Z,97.90
2018-12-19T15:33:08.426Z,98.00
2018-12-19T15:35:36.309Z,98.00
2018-12-19T15:38:04.307Z,98.40
2018-12-19T15:40:32.187Z,98.30
2018-12-19T15:43:00.172Z,98.10
2018-12-19T15:45:28.510Z,97.90
2018-12-19T15:47:56.429Z,97.70
2018-12-19T15:50:24.395Z,97.50
2018-12-19T15:52:52.323Z,97.30
2018-12-19T15:55:20.371Z,97.00
2018-12-19T15:57:48.393Z,97.20
2018-12-19T16:00:16.517Z,97.30
2018-12-19T16:02:44.505Z,97.50
2018-12-19T16:05:12.589Z,97.40
2018-12-19T16:07:40.497Z,97.30
2018-12-19T16:10:08.736Z,97.40
2018-12-19T16:12:39.353Z,97.50
2018-12-19T16:15:06.834Z,97.50
2018-12-19T16:17:34.680Z,97.60
2018-12-19T16:20:02.811Z,97.70
2018-12-19T16:22:32.246Z,97.40
2018-12-19T16:25:00.272Z,97.30
2018-12-19T16:27:28.558Z,97.10
2018-12-19T16:29:56.566Z,97.00
2018-12-19T16:32:24.609Z,97.00
2018-12-19T16:34:52.673Z,96.80
2018-12-19T16:37:20.545Z,96.90
2018-12-19T16:39:48.531Z,97.10
2018-12-19T16:42:16.670Z,97.20
2018-12-19T16:44:44.624Z,97.10
2018-12-19T16:47:12.554Z,96.90
2018-12-19T16:49:40.463Z,96.80
2018-12-19T16:52:08.397Z,96.70
2018-12-19T16:54:36.403Z,96.70
2018-12-19T16:57:04.384Z,96.70
2018-12-19T16:59:32.369Z,96.50
2018-12-19T17:02:00.915Z,96.60
2018-12-19T17:04:28.929Z,96.60
2018-12-19T17:06:57.399Z,96.70
2018-12-19T17:09:25.524Z,96.70
2018-12-19T17:11:53.507Z,96.60
2018-12-19T17:14:21.405Z,96.40
2018-12-19T17:16:49.203Z,96.40
2018-12-19T17:19:16.975Z,96.40
2018-12-19T17:21:44.792Z,96.30
2018-12-19T17:24:12.669Z,96.50
2018-12-19T17:26:40.660Z,96.30
2018-12-19T17:29:08.635Z,96.30
2018-12-19T17:31:36.446Z,96.50
2018-12-19T17:34:04.331Z,96.40
2018-12-19T17:36:32.168Z,96.50
2018-12-19T17:38:59.884Z,96.40
2018-12-19T17:41:27.788Z,96.30
2018-12-19T17:43:55.669Z,96.40
2018-12-19T17:46:23.585Z,96.50
2018-12-19T17:48:51.476Z,96.40
2018-12-19T17:51:19.184Z,96.60
2018-12-19T17:53:47.153Z,96.60
2018-12-19T17:56:15.028Z,96.50
2018-12-19T17:58:43.069Z,96.40
2018-12-19T18:01:11.138Z,96.40
2018-12-19T18:03:39.031Z,96.40
2018-12-19T18:06:06.884Z,96.30
2018-12-19T18:08:35.706Z,96.40
2018-12-19T18:11:03.931Z,96.40
2018-12-19T18:13:31.880Z,96.40
2018-12-19T18:15:59.682Z,96.40
2018-12-19T18:18:27.510Z,96.20
2018-12-19T18:20:55.252Z,96.30
2018-12-19T18:23:23.059Z,96.30
2018-12-19T18:25:51.029Z,96.20
2018-12-19T18:28:18.924Z,96.10
2018-12-19T18:30:46.869Z,96.20
2018-12-19T18:33:14.836Z,96.20
2018-12-19T18:35:43.429Z,96.10
2018-12-19T18:38:11.253Z,96.00
2018-12-19T18:40:39.274Z,96.00
2018-12-19T18:43:12.732Z,95.80
2018-12-19T18:45:37.212Z,95.80
2018-12-19T18:48:05.177Z,96.00
2018-12-19T18:50:33.258Z,96.00
2018-12-19T18:53:01.505Z,96.10
2018-12-19T18:55:29.649Z,96.20
2018-12-19T18:57:57.688Z,96.00
2018-12-19T19:00:33.416Z,96.20
2018-12-19T19:03:01.558Z,96.40
2018-12-19T19:05:30.318Z,96.80
2018-12-19T19:07:58.991Z,96.40
2018-12-19T19:10:26.942Z,96.50
2018-12-19T19:12:54.868Z,96.30
2018-12-19T19:15:22.673Z,96.20
2018-12-19T19:17:50.743Z,96.00
2018-12-19T19:20:18.577Z,96.20
2018-12-19T19:22:46.580Z,96.00
2018-12-19T19:25:14.483Z,96.10
2018-12-19T19:27:42.421Z,96.10
2018-12-19T19:30:10.508Z,96.30
2018-12-19T19:32:38.440Z,96.30
2018-12-19T19:35:06.500Z,96.10
2018-12-19T19:37:34.484Z,96.10
2018-12-19T19:40:02.692Z,96.10
2018-12-19T19:42:32.313Z,96.20
2018-12-19T19:45:00.166Z,96.20
2018-12-19T19:47:28.437Z,96.10
2018-12-19T19:49:56.328Z,96.00
2018-12-19T19:52:24.266Z,96.10
2018-12-19T19:54:52.114Z,96.00
2018-12-19T19:57:19.959Z,95.70
2018-12-19T19:59:47.949Z,95.60
2018-12-19T20:02:15.782Z,95.90
2018-12-19T20:04:44.374Z,95.70
2018-12-19T20:07:12.290Z,95.90
2018-12-19T20:09:40.422Z,95.80
2018-12-19T20:12:08.300Z,95.80
2018-12-19T20:14:36.440Z,96.10
2018-12-19T20:17:04.497Z,95.90
2018-12-19T20:19:32.572Z,95.70
2018-12-19T20:22:00.424Z,95.50
2018-12-19T20:24:28.464Z,95.60
2018-12-19T20:26:56.384Z,95.50
2018-12-19T20:29:25.276Z,95.50
2018-12-19T20:31:53.073Z,95.40
2018-12-19T20:34:21.000Z,95.30
2018-12-19T20:36:48.741Z,95.40
2018-12-19T20:39:16.671Z,95.70
2018-12-19T20:41:44.549Z,95.50
2018-12-19T20:44:12.572Z,95.60
2018-12-19T20:46:40.402Z,95.90
2018-12-19T20:49:08.165Z,95.70
2018-12-19T20:51:36.181Z,95.90
2018-12-19T20:54:04.173Z,95.80
2018-12-19T20:56:32.162Z,96.20
2018-12-19T20:59:00.004Z,96.30
2018-12-19T21:01:28.244Z,96.20
2018-12-19T21:03:56.195Z,96.50
2018-12-19T21:06:24.191Z,96.50
2018-12-19T21:08:52.068Z,96.80
2018-12-19T21:11:19.979Z,96.90
2018-12-19T21:13:47.844Z,97.10
2018-12-19T21:16:15.936Z,96.70
2018-12-19T21:18:50.613Z,96.90
2018-12-19T21:21:18.709Z,96.80
2018-12-19T21:23:46.751Z,96.80
2018-12-19T21:26:14.632Z,96.80
2018-12-19T21:28:42.625Z,97.00
2018-12-19T21:31:10.411Z,96.80
2018-12-19T21:33:38.361Z,96.80
2018-12-19T21:36:06.296Z,96.70
2018-12-19T21:38:34.231Z,96.50
2018-12-19T21:41:02.284Z,96.40
2018-12-19T21:43:30.302Z,96.50
2018-12-19T21:45:58.506Z,96.20
2018-12-19T21:48:26.561Z,96.00
2018-12-19T21:50:54.672Z,96.10
2018-12-19T21:53:22.709Z,96.00
2018-12-19T21:55:50.698Z,95.80
2018-12-19T21:58:18.830Z,95.90
2018-12-19T22:00:46.848Z,95.90
2018-12-19T22:03:14.852Z,95.90
2018-12-19T22:05:43.194Z,95.80
2018-12-19T22:08:11.248Z,95.60
2018-12-19T22:10:39.396Z,95.40
2018-12-19T22:13:07.315Z,95.20
2018-12-19T22:15:35.310Z,95.30
2018-12-19T22:18:08.986Z,95.00
2018-12-19T22:20:38.664Z,95.10
2018-12-19T22:23:06.613Z,95.10
2018-12-19T22:25:34.700Z,94.80
2018-12-19T22:28:02.755Z,95.00
2018-12-19T22:30:30.807Z,94.90
2018-12-19T22:32:58.704Z,94.90
2018-12-19T22:35:26.645Z,94.80
2018-12-19T22:37:54.497Z,94.90
2018-12-19T22:40:22.514Z,95.00
2018-12-19T22:42:50.512Z,94.80
2018-12-19T22:45:18.571Z,94.80
2018-12-19T22:47:46.618Z,94.70
2018-12-19T22:50:14.570Z,95.00
2018-12-19T22:52:42.720Z,94.80
2018-12-19T22:55:10.575Z,94.80
2018-12-19T22:57:38.502Z,94.60
2018-12-19T23:00:12.564Z,94.50
2018-12-19T23:02:47.953Z,94.30
2018-12-19T23:05:22.473Z,94.30
2018-12-19T23:07:52.212Z,94.30
2018-12-19T23:10:20.218Z,94.20
2018-12-19T23:12:48.124Z,94.20
2018-12-19T23:15:17.212Z,94.10
2018-12-19T23:17:46.804Z,94.10
2018-12-19T23:20:15.016Z,93.90
2018-12-19T23:22:43.489Z,94.20
2018-12-19T23:25:11.666Z,94.10
2018-12-19T23:27:39.768Z,94.50
2018-12-19T23:30:08.321Z,94.70
2018-12-19T23:32:36.912Z,94.80
2018-12-19T23:35:05.152Z,94.80
2018-12-19T23:37:33.316Z,94.90
2018-12-19T23:40:01.561Z,94.90
2018-12-19T23:42:30.010Z,94.80
2018-12-19T23:44:58.176Z,94.80
2018-12-19T23:47:25.995Z,94.50
2018-12-19T23:49:54.196Z,94.80
2018-12-19T23:52:22.156Z,94.70
2018-12-19T23:54:50.242Z,94.50
2018-12-19T23:57:18.171Z,94.50
2018-12-19T23:59:46.298Z,94.60
